Time;durP1;ratioP1;P1;durP2;ratioP2;P2;SDS_P1;SDS_P2;PMS_P1;PMS_P2;Temp;Humidity;BMP_temperature;BMP_pressure;BME280_temperature;BME280_humidity;BME280_pressure;Samples;Min_cycle;Max_cycle;Signal;HPM_P1;HPM_P2
2022/03/26 00:01:24;;;;;;;;;38.00;35.33;;;;;;;;5050655;28;8960;-81
2022/03/26 00:03:50;;;;;;;;;37.00;34.00;;;;;;;;5050419;28;8834;-81
2022/03/26 00:06:15;;;;;;;;;38.00;35.00;;;;;;;;5053013;28;8794;-81
2022/03/26 00:08:40;;;;;;;;;43.33;33.33;;;;;;;;5054261;28;8794;-81
2022/03/26 00:11:06;;;;;;;;;44.00;35.00;;;;;;;;5054245;28;8899;-81
2022/03/26 00:13:31;;;;;;;;;38.00;32.33;;;;;;;;5054128;28;8822;-82
2022/03/26 00:15:56;;;;;;;;;41.33;35.67;;;;;;;;5054132;28;9575;-82
2022/03/26 00:18:22;;;;;;;;;38.67;35.33;;;;;;;;5054084;28;8803;-82
2022/03/26 00:20:47;;;;;;;;;32.33;31.33;;;;;;;;5054059;28;8786;-81
2022/03/26 00:23:13;;;;;;;;;34.67;32.33;;;;;;;;5054023;28;9555;-82
2022/03/26 00:25:38;;;;;;;;;43.33;38.00;;;;;;;;5035949;28;8895;-82
2022/03/26 00:28:03;;;;;;;;;35.33;31.00;;;;;;;;5036023;28;8864;-81
2022/03/26 00:30:29;;;;;;;;;40.33;36.00;;;;;;;;5036059;28;8842;-82
2022/03/26 00:32:55;;;;;;;;;37.00;33.33;;;;;;;;5036029;28;8842;-82
2022/03/26 00:35:20;;;;;;;;;32.33;31.00;;;;;;;;5053844;28;8907;-82
2022/03/26 00:37:45;;;;;;;;;38.33;35.00;;;;;;;;5053597;28;8810;-82
2022/03/26 00:40:11;;;;;;;;;38.33;36.00;;;;;;;;5053694;28;8802;-82
2022/03/26 00:42:36;;;;;;;;;35.33;30.67;;;;;;;;5053920;28;8841;-82
2022/03/26 00:45:02;;;;;;;;;37.67;35.00;;;;;;;;5053677;28;8794;-82
2022/03/26 00:47:27;;;;;;;;;35.33;31.00;;;;;;;;5053392;28;8787;-81
2022/03/26 00:49:54;;;;;;;;;37.67;29.67;;;;;;;;5053895;28;8824;-82
2022/03/26 00:52:19;;;;;;;;;34.33;31.67;;;;;;;;5035493;28;8835;-82
2022/03/26 00:54:45;;;;;;;;;37.67;35.33;;;;;;;;5035671;28;8809;-82
2022/03/26 00:57:10;;;;;;;;;31.00;30.33;;;;;;;;5053483;28;8826;-82
2022/03/26 00:59:35;;;;;;;;;35.33;33.00;;;;;;;;5035635;28;8822;-82
2022/03/26 01:02:01;;;;;;;;;35.00;32.33;;;;;;;;5053184;28;8933;-82
2022/03/26 01:04:26;;;;;;;;;35.00;32.67;;;;;;;;5053171;28;8810;-81
2022/03/26 01:06:51;;;;;;;;;35.00;33.33;;;;;;;;5035450;28;8807;-81
2022/03/26 01:09:16;;;;;;;;;35.00;34.33;;;;;;;;5053164;28;8905;-81
2022/03/26 01:11:42;;;;;;;;;39.67;33.33;;;;;;;;5053317;28;8775;-82
2022/03/26 01:14:07;;;;;;;;;30.00;30.00;;;;;;;;5053100;28;8815;-81
2022/03/26 01:16:32;;;;;;;;;33.00;33.00;;;;;;;;5052992;28;8916;-82
2022/03/26 01:18:58;;;;;;;;;39.67;35.67;;;;;;;;5053029;28;8782;-82
2022/03/26 01:21:23;;;;;;;;;38.33;35.00;;;;;;;;5052771;28;8832;-81
2022/03/26 01:23:50;;;;;;;;;35.33;29.33;;;;;;;;5053075;28;8849;-81
2022/03/26 01:26:16;;;;;;;;;31.67;29.33;;;;;;;;5034899;28;8837;-81
2022/03/26 01:28:42;;;;;;;;;33.33;30.00;;;;;;;;5052855;28;8798;-81
2022/03/26 01:31:07;;;;;;;;;29.00;26.67;;;;;;;;5034978;28;8818;-81
2022/03/26 01:33:32;;;;;;;;;30.33;28.67;;;;;;;;5034928;28;8846;-82
2022/03/26 01:35:58;;;;;;;;;38.33;32.33;;;;;;;;5052549;28;8901;-79
2022/03/26 01:38:23;;;;;;;;;27.33;26.67;;;;;;;;5052920;28;8800;-78
2022/03/26 01:40:49;;;;;;;;;34.00;32.33;;;;;;;;5052644;28;8798;-77
2022/03/26 01:43:14;;;;;;;;;31.67;29.33;;;;;;;;5052513;28;8881;-78
2022/03/26 01:45:40;;;;;;;;;27.67;27.67;;;;;;;;5052791;28;8879;-78
2022/03/26 01:48:05;;;;;;;;;35.33;31.33;;;;;;;;5052290;28;8922;-78
2022/03/26 01:50:31;;;;;;;;;34.67;29.67;;;;;;;;5052491;28;8925;-76
2022/03/26 01:52:56;;;;;;;;;32.33;29.00;;;;;;;;5052240;28;8842;-77
2022/03/26 01:55:23;;;;;;;;;20.00;17.00;;;;;;;;5052404;28;8783;-77
2022/03/26 01:57:48;;;;;;;;;31.33;29.00;;;;;;;;5052294;28;8782;-77
2022/03/26 02:00:14;;;;;;;;;35.33;32.33;;;;;;;;5034507;28;9518;-78
2022/03/26 02:02:43;;;;;;;;;31.00;29.33;;;;;;;;5033971;28;8850;-78
2022/03/26 02:05:16;;;;;;;;;28.00;24.67;;;;;;;;5052467;28;8897;-78
2022/03/26 02:07:43;;;;;;;;;39.33;33.00;;;;;;;;5051931;28;8814;-78
2022/03/26 02:10:09;;;;;;;;;30.00;27.33;;;;;;;;5034182;28;8803;-77
2022/03/26 02:12:34;;;;;;;;;28.67;28.67;;;;;;;;5051954;28;8865;-77
2022/03/26 02:15:00;;;;;;;;;32.33;29.33;;;;;;;;5051988;28;8803;-77
2022/03/26 02:17:25;;;;;;;;;33.00;30.33;;;;;;;;5033846;28;8802;-77
2022/03/26 02:19:50;;;;;;;;;33.00;29.67;;;;;;;;5051907;28;8790;-78
2022/03/26 02:22:16;;;;;;;;;34.33;31.00;;;;;;;;5051936;28;8791;-77
2022/03/26 02:24:41;;;;;;;;;31.33;30.33;;;;;;;;5051597;28;8794;-77
2022/03/26 02:27:07;;;;;;;;;31.67;30.67;;;;;;;;5051814;28;8794;-77
2022/03/26 02:29:32;;;;;;;;;32.00;29.33;;;;;;;;5051133;28;8798;-79
2022/03/26 02:31:57;;;;;;;;;36.00;31.67;;;;;;;;5051523;28;8835;-79
2022/03/26 02:34:24;;;;;;;;;33.67;30.00;;;;;;;;5033969;28;8929;-77
2022/03/26 02:36:53;;;;;;;;;27.67;27.67;;;;;;;;5051541;28;8806;-77
2022/03/26 02:39:18;;;;;;;;;33.00;28.33;;;;;;;;5051460;28;8798;-77
2022/03/26 02:41:44;;;;;;;;;27.00;27.00;;;;;;;;5051566;28;8825;-77
2022/03/26 02:44:09;;;;;;;;;26.67;24.00;;;;;;;;5051563;28;8806;-77
2022/03/26 02:46:36;;;;;;;;;9.67;5.33;;;;;;;;5051596;28;8795;-77
2022/03/26 02:49:04;;;;;;;;;34.67;30.67;;;;;;;;5051444;28;8798;-78
2022/03/26 02:51:29;;;;;;;;;35.67;32.33;;;;;;;;5051193;28;8799;-79
2022/03/26 02:53:54;;;;;;;;;33.67;32.67;;;;;;;;5050753;28;9629;-76
2022/03/26 02:56:20;;;;;;;;;31.33;30.33;;;;;;;;5051277;28;8941;-76
2022/03/26 02:58:46;;;;;;;;;32.00;30.67;;;;;;;;5049849;28;8806;-75
2022/03/26 03:01:13;;;;;;;;;31.67;27.00;;;;;;;;5036977;28;8872;-76
2022/03/26 03:03:38;;;;;;;;;34.67;31.33;;;;;;;;5031384;28;8821;-76
2022/03/26 03:06:03;;;;;;;;;35.67;29.33;;;;;;;;5031086;28;8932;-77
2022/03/26 03:08:28;;;;;;;;;31.67;26.33;;;;;;;;5013288;28;8840;-77
2022/03/26 03:10:54;;;;;;;;;33.00;28.67;;;;;;;;5031300;28;8785;-76
2022/03/26 03:13:21;;;;;;;;;31.67;29.67;;;;;;;;5013171;28;8848;-77
2022/03/26 03:15:47;;;;;;;;;42.67;36.00;;;;;;;;5031398;28;8797;-79
2022/03/26 09:23:46;;;;;;;;;45.50;35.75;;;;;;;;5002907;27;2198878;-76
2022/03/26 09:26:12;;;;;;;;;40.75;35.00;;;;;;;;5086924;28;8779;-75
2022/03/26 09:28:37;;;;;;;;;35.00;31.25;;;;;;;;5084244;28;11500;-74
2022/03/26 09:31:02;;;;;;;;;39.00;33.25;;;;;;;;5086741;28;8890;-71
2022/03/26 09:33:28;;;;;;;;;41.00;32.50;;;;;;;;5086658;28;8920;-73
2022/03/26 09:35:53;;;;;;;;;39.25;33.00;;;;;;;;5086669;28;8906;-73
2022/03/26 09:38:18;;;;;;;;;43.25;34.25;;;;;;;;5086948;28;8786;-76
2022/03/26 09:40:44;;;;;;;;;39.25;34.25;;;;;;;;5086883;28;8903;-75
2022/03/26 09:43:09;;;;;;;;;34.25;31.00;;;;;;;;5086932;28;8791;-73
2022/03/26 09:45:34;;;;;;;;;38.00;33.00;;;;;;;;5087251;28;8791;-73
2022/03/26 09:47:59;;;;;;;;;39.00;33.25;;;;;;;;5086755;28;8767;-74
2022/03/26 09:50:25;;;;;;;;;40.00;33.25;;;;;;;;5086809;28;8876;-74
2022/03/26 09:52:51;;;;;;;;;35.00;31.00;;;;;;;;5086654;28;8847;-74
2022/03/26 09:55:17;;;;;;;;;37.25;31.50;;;;;;;;5086650;28;8922;-74
2022/03/26 09:57:42;;;;;;;;;34.50;30.00;;;;;;;;5086635;28;8912;-73
2022/03/26 10:00:09;;;;;;;;;33.25;28.75;;;;;;;;5086652;28;9563;-74
2022/03/26 10:02:35;;;;;;;;;34.75;30.00;;;;;;;;5086317;28;8838;-74
2022/03/26 10:05:00;;;;;;;;;38.25;32.00;;;;;;;;5086568;28;9580;-74
2022/03/26 10:07:29;;;;;;;;;35.25;30.75;;;;;;;;5085195;28;8824;-73
2022/03/26 10:09:55;;;;;;;;;33.67;29.67;;;;;;;;5086368;28;8787;-74
2022/03/26 10:12:21;;;;;;;;;32.00;29.00;;;;;;;;5086267;28;9334;-74
2022/03/26 10:14:59;;;;;;;;;34.00;31.00;;;;;;;;5086010;28;9248;-75
2022/03/26 10:17:26;;;;;;;;;30.67;28.33;;;;;;;;5085969;28;9273;-76
2022/03/26 10:19:53;;;;;;;;;33.00;27.67;;;;;;;;5086068;28;9136;-74
2022/03/26 10:22:26;;;;;;;;;38.50;34.50;;;;;;;;5084213;28;8942;-74
2022/03/26 10:24:52;;;;;;;;;31.67;29.67;;;;;;;;5086006;28;9397;-73
2022/03/26 10:27:18;;;;;;;;;30.00;28.00;;;;;;;;5086049;28;9131;-74
2022/03/26 10:29:59;;;;;;;;;31.67;28.00;;;;;;;;5086026;28;8787;-73
2022/03/26 10:32:45;;;;;;;;;30.33;28.00;;;;;;;;5084392;28;8837;-72
2022/03/26 10:35:18;;;;;;;;;32.00;29.00;;;;;;;;5071860;28;9027;-72
2022/03/26 10:37:46;;;;;;;;;31.00;29.00;;;;;;;;5072281;28;9261;-73
2022/03/26 10:40:18;;;;;;;;;29.00;28.00;;;;;;;;5070897;28;9671;-74
2022/03/26 10:42:43;;;;;;;;;31.75;28.50;;;;;;;;5072193;28;9822;-73
2022/03/26 10:45:15;;;;;;;;;29.50;28.75;;;;;;;;5072139;28;9897;-76
2022/03/26 10:47:40;;;;;;;;;30.25;29.00;;;;;;;;5072454;28;8871;-75
2022/03/26 10:50:06;;;;;;;;;31.75;30.00;;;;;;;;5072230;28;10053;-74
2022/03/26 10:52:31;;;;;;;;;31.25;29.00;;;;;;;;5072279;28;8831;-74
2022/03/26 10:54:56;;;;;;;;;32.00;30.00;;;;;;;;5072081;28;8810;-73
2022/03/26 10:57:24;;;;;;;;;34.25;31.00;;;;;;;;5072200;28;8782;-74
2022/03/26 10:59:51;;;;;;;;;27.00;25.75;;;;;;;;5072134;28;8814;-73
2022/03/26 11:02:16;;;;;;;;;38.75;31.50;;;;;;;;5071787;28;10825;-74
2022/03/26 11:04:41;;;;;;;;;29.50;26.50;;;;;;;;5086527;28;11001;-72
2022/03/26 11:07:07;;;;;;;;;30.00;25.50;;;;;;;;5092092;28;8818;-73
2022/03/26 11:09:33;;;;;;;;;26.75;26.25;;;;;;;;5092126;28;8919;-71
2022/03/26 11:11:59;;;;;;;;;28.50;28.25;;;;;;;;5091893;28;9027;-75
2022/03/26 11:14:28;;;;;;;;;31.50;29.75;;;;;;;;5091263;28;8792;-75
2022/03/26 11:17:02;;;;;;;;;29.75;26.75;;;;;;;;5090094;28;11004;-76
2022/03/26 11:19:30;;;;;;;;;32.75;27.00;;;;;;;;5091513;28;11088;-75
2022/03/26 11:22:04;;;;;;;;;29.00;28.50;;;;;;;;5091679;28;10810;-76
2022/03/26 11:24:45;;;;;;;;;31.00;30.00;;;;;;;;5091686;28;10921;-76
2022/03/26 11:27:22;;;;;;;;;27.50;27.50;;;;;;;;5032861;28;11468;-76
2022/03/26 11:29:53;;;;;;;;;30.50;29.25;;;;;;;;5087960;28;11469;-77
2022/03/26 11:32:31;;;;;;;;;31.00;30.00;;;;;;;;5091590;28;11220;-74
2022/03/26 11:35:01;;;;;;;;;29.00;28.50;;;;;;;;5091738;28;11564;-75
2022/03/26 11:37:26;;;;;;;;;31.75;28.00;;;;;;;;5091665;28;11423;-76
2022/03/26 11:39:52;;;;;;;;;31.00;29.00;;;;;;;;5091149;28;11504;-76
2022/03/26 11:42:23;;;;;;;;;26.75;25.75;;;;;;;;5091732;28;8990;-74
2022/03/26 11:50:42;;;;;;;;;24.75;24.00;;;;;;;;5091280;28;11426;-73
2022/03/26 11:53:09;;;;;;;;;26.50;24.50;;;;;;;;5090886;28;11476;-73
2022/03/26 11:55:44;;;;;;;;;23.75;23.00;;;;;;;;5090423;28;11256;-73
2022/03/26 11:58:13;;;;;;;;;22.75;22.00;;;;;;;;5090959;28;11432;-73
2022/03/26 12:01:12;;;;;;;;;24.75;22.00;;;;;;;;5090341;28;11566;-74
2022/03/26 12:03:42;;;;;;;;;24.50;23.50;;;;;;;;5011415;28;11530;-72
2022/03/26 12:09:00;;;;;;;;;25.75;23.75;;;;;;;;5028223;28;11602;-74
2022/03/26 12:11:31;;;;;;;;;36.00;33.00;;;;;;;;5011938;28;11504;-72
2022/03/26 12:13:59;;;;;;;;;27.00;25.00;;;;;;;;5073280;28;11527;-70
2022/03/26 12:16:46;;;;;;;;;24.75;24.75;;;;;;;;5090866;28;11461;-72
2022/03/26 12:19:11;;;;;;;;;30.75;26.50;;;;;;;;5090628;28;11438;-73
2022/03/26 12:21:49;;;;;;;;;24.50;22.25;;;;;;;;5090039;28;11514;-73
2022/03/26 12:24:17;;;;;;;;;22.00;21.25;;;;;;;;5091117;28;8815;-76
2022/03/26 12:26:51;;;;;;;;;22.00;22.00;;;;;;;;5090091;28;11425;-74
2022/03/26 12:29:17;;;;;;;;;27.50;22.50;;;;;;;;5089836;28;11416;-72
2022/03/26 12:31:42;;;;;;;;;22.25;22.00;;;;;;;;5083906;28;11557;-73
2022/03/26 12:34:07;;;;;;;;;23.50;20.25;;;;;;;;5078780;28;8928;-75
2022/03/26 12:36:34;;;;;;;;;22.50;22.00;;;;;;;;5086895;28;8811;-75
2022/03/26 12:39:00;;;;;;;;;27.00;24.50;;;;;;;;5088898;28;8930;-75
2022/03/26 12:41:30;;;;;;;;;21.50;19.50;;;;;;;;5089829;28;11663;-72
2022/03/26 12:43:57;;;;;;;;;23.75;23.00;;;;;;;;5094734;28;8825;-75
2022/03/26 12:46:29;;;;;;;;;22.00;20.50;;;;;;;;5110493;28;11579;-75
2022/03/26 12:48:58;;;;;;;;;22.25;19.50;;;;;;;;5110529;28;11456;-75
2022/03/26 12:51:27;;;;;;;;;23.50;22.50;;;;;;;;5109945;28;11413;-75
2022/03/26 12:53:52;;;;;;;;;22.00;21.50;;;;;;;;5100019;28;11435;-76
2022/03/26 12:56:17;;;;;;;;;21.00;19.75;;;;;;;;5089407;28;11428;-75
2022/03/26 12:58:58;;;;;;;;;21.25;20.25;;;;;;;;5089716;28;8910;-77
2022/03/26 13:01:27;;;;;;;;;24.75;21.75;;;;;;;;5090487;28;8807;-75
2022/03/26 13:03:53;;;;;;;;;24.75;23.75;;;;;;;;5089939;28;11606;-76
2022/03/26 13:06:20;;;;;;;;;25.25;23.00;;;;;;;;5090368;28;11449;-76
2022/03/26 13:08:58;;;;;;;;;22.75;21.75;;;;;;;;5090117;28;8792;-76
2022/03/26 13:11:24;;;;;;;;;23.50;21.75;;;;;;;;5089826;28;11529;-77
2022/03/26 13:13:51;;;;;;;;;4.00;2.00;;;;;;;;5090072;28;11414;-78
2022/03/26 13:16:18;;;;;;;;;22.00;22.00;;;;;;;;5089835;28;11660;-79
2022/03/26 13:18:57;;;;;;;;;24.00;22.50;;;;;;;;5088427;28;11457;-76
2022/03/26 13:21:24;;;;;;;;;23.75;20.75;;;;;;;;5089721;28;11506;-76
2022/03/26 13:23:53;;;;;;;;;22.25;22.25;;;;;;;;5089472;28;11449;-74
2022/03/26 13:26:19;;;;;;;;;22.00;20.50;;;;;;;;5089759;28;11458;-74
2022/03/26 13:28:44;;;;;;;;;25.75;23.75;;;;;;;;5088176;28;12158;-75
2022/03/26 13:31:20;;;;;;;;;23.25;20.00;;;;;;;;5089876;28;8776;-75
2022/03/26 13:33:45;;;;;;;;;18.50;18.50;;;;;;;;5089722;28;8849;-74
2022/03/26 13:36:10;;;;;;;;;19.50;18.00;;;;;;;;5089557;28;11418;-73
2022/03/26 13:38:38;;;;;;;;;21.75;20.75;;;;;;;;5089776;28;8804;-74
2022/03/26 13:41:13;;;;;;;;;26.25;22.25;;;;;;;;5088098;28;8808;-74
2022/03/26 13:43:39;;;;;;;;;28.00;24.00;;;;;;;;5089701;28;11453;-73
2022/03/26 13:46:04;;;;;;;;;22.25;21.25;;;;;;;;5089508;28;12248;-73
2022/03/26 13:48:44;;;;;;;;;23.25;20.75;;;;;;;;5089412;28;11406;-74
2022/03/26 13:51:10;;;;;;;;;25.00;20.50;;;;;;;;5089609;28;8792;-73
2022/03/26 13:53:39;;;;;;;;;22.75;19.25;;;;;;;;5089231;28;11615;-75
2022/03/26 13:56:04;;;;;;;;;20.50;19.75;;;;;;;;5088851;28;11497;-75
2022/03/26 13:58:34;;;;;;;;;22.50;18.75;;;;;;;;5088169;28;11450;-73
2022/03/26 14:00:59;;;;;;;;;24.00;23.50;;;;;;;;5104799;28;8827;-76
2022/03/26 14:03:24;;;;;;;;;20.25;18.50;;;;;;;;5087076;28;11525;-76
